Time;durP1;ratioP1;P1;durP2;ratioP2;P2;SDS_P1;SDS_P2;PMS_P1;PMS_P2;Temp;Humidity;BMP_temperature;BMP_pressure;BME280_temperature;BME280_humidity;BME280_pressure;Samples;Min_cycle;Max_cycle;Signal;HPM_P1;HPM_P2
2022/01/30 00:01:39;;;;;;;7.03;2.20;;;;;;;12.53;49.75;102169.31;5011849;28;20089;-72
2022/01/30 00:04:06;;;;;;;7.45;2.60;;;;;;;12.52;49.69;102166.69;5008783;28;20049;-72
2022/01/30 00:06:32;;;;;;;8.23;2.20;;;;;;;12.49;49.77;102170.47;5005397;28;20141;-72
2022/01/30 00:08:59;;;;;;;9.40;2.33;;;;;;;12.48;49.58;102176.88;5010847;28;20074;-72
2022/01/30 00:11:31;;;;;;;11.80;2.78;;;;;;;12.47;49.72;102177.84;5007050;28;20521;-72
2022/01/30 00:14:00;;;;;;;10.25;2.20;;;;;;;12.42;49.55;102185.38;5000462;28;20440;-72
2022/01/30 00:16:32;;;;;;;8.60;2.22;;;;;;;12.43;49.61;102178.97;4985736;28;20522;-72
2022/01/30 00:21:49;;;;;;;7.70;1.77;;;;;;;12.39;49.76;102195.53;5010430;28;20053;-72
2022/01/30 00:24:27;;;;;;;9.68;2.20;;;;;;;12.36;49.49;102191.13;5007625;28;20519;-72
2022/01/30 00:26:53;;;;;;;9.73;2.30;;;;;;;12.34;49.52;102193.09;5007359;28;20057;-72
2022/01/30 00:29:20;;;;;;;8.20;2.50;;;;;;;12.33;49.41;102190.44;5009769;28;20054;-72
2022/01/30 00:31:47;;;;;;;6.45;2.00;;;;;;;12.30;49.33;102196.91;5011370;28;20068;-72
2022/01/30 00:34:34;;;;;;;11.57;3.40;;;;;;;12.28;49.59;102200.66;5009456;28;20053;-72
2022/01/30 00:37:03;;;;;;;8.82;2.40;;;;;;;12.26;49.79;102200.78;5009064;28;20061;-72
2022/01/30 00:39:30;;;;;;;9.30;2.58;;;;;;;12.24;49.47;102207.25;5009740;28;20104;-72
2022/01/30 00:41:57;;;;;;;6.90;2.25;;;;;;;12.22;49.47;102193.72;5011346;28;20052;-72
2022/01/30 00:44:24;;;;;;;7.50;2.53;;;;;;;12.21;49.82;102202.84;5010052;28;20136;-72
2022/01/30 00:46:51;;;;;;;10.32;3.05;;;;;;;12.20;49.18;102211.97;5009351;28;20045;-72
2022/01/30 00:49:18;;;;;;;9.05;2.30;;;;;;;12.15;49.44;102214.94;5009587;28;20054;-72
2022/01/30 00:51:45;;;;;;;7.90;2.33;;;;;;;12.14;49.22;102224.06;5010651;28;20053;-72
2022/01/30 00:54:11;;;;;;;7.57;2.00;;;;;;;12.12;49.47;102217.81;5008417;28;20107;-72
2022/01/30 00:56:38;;;;;;;10.85;2.38;;;;;;;12.11;49.23;102213.31;5010068;28;20373;-72
2022/01/30 00:59:05;;;;;;;8.55;2.65;;;;;;;12.10;49.32;102207.97;5009586;28;20128;-72
2022/01/30 01:01:32;;;;;;;7.85;2.70;;;;;;;12.08;49.06;102209.88;5010418;28;20081;-72
2022/01/30 01:03:59;;;;;;;9.93;2.45;;;;;;;12.07;49.73;102217.19;5010724;28;20060;-72
2022/01/30 01:06:26;;;;;;;11.13;2.70;;;;;;;12.07;49.19;102222.63;5003817;28;20053;-72
2022/01/30 01:09:01;;;;;;;8.15;2.30;;;;;;;12.05;49.29;102219.09;5010118;28;20057;-72
2022/01/30 01:25:20;;;;;;;9.77;2.40;;;;;;;11.95;49.22;102231.41;4986586;28;20109;-72
2022/01/30 01:27:47;;;;;;;8.90;2.75;;;;;;;11.94;49.31;102231.50;5008362;28;20112;-72
2022/01/30 01:30:14;;;;;;;8.90;2.70;;;;;;;11.94;48.75;102231.50;5008301;28;20073;-72
2022/01/30 01:32:40;;;;;;;9.68;2.85;;;;;;;11.92;49.38;102220.69;5009810;28;20085;-71
2022/01/30 01:35:07;;;;;;;9.05;2.10;;;;;;;11.90;49.11;102228.03;5015508;28;20088;-72
2022/01/30 01:37:34;;;;;;;9.75;2.25;;;;;;;11.89;49.05;102228.09;5006770;28;20077;-72
2022/01/30 01:40:00;;;;;;;9.75;2.45;;;;;;;11.87;49.31;102225.47;5007122;28;20053;-72
2022/01/30 01:42:32;;;;;;;9.35;2.38;;;;;;;11.86;49.14;102231.84;5009391;28;20108;-72
2022/01/30 01:44:59;;;;;;;8.93;2.22;;;;;;;11.85;49.06;102231.97;4997586;28;20192;-72
2022/01/30 01:47:31;;;;;;;8.27;2.15;;;;;;;11.84;49.40;102236.53;5006573;28;20108;-72
2022/01/30 01:49:57;;;;;;;8.88;2.08;;;;;;;11.82;49.09;102233.00;5008539;28;20276;-72
2022/01/30 01:52:26;;;;;;;8.75;2.63;;;;;;;11.82;49.12;102228.44;5009747;28;20048;-71
2022/01/30 01:54:54;;;;;;;7.97;2.67;;;;;;;11.79;48.95;102214.97;5007004;28;20060;-72
2022/01/30 01:57:23;;;;;;;8.45;2.10;;;;;;;11.80;49.12;102213.13;5009661;28;20485;-72
2022/01/30 01:59:51;;;;;;;12.05;2.97;;;;;;;11.76;49.00;102206.97;5008470;28;20054;-71
2022/01/30 02:02:18;;;;;;;10.93;2.20;;;;;;;11.75;49.25;102205.22;5009624;28;20097;-71
2022/01/30 02:04:46;;;;;;;8.18;2.38;;;;;;;11.73;49.11;102207.09;5007984;28;20057;-72
2022/01/30 02:09:41;;;;;;;7.90;2.00;;;;;;;11.73;48.89;102212.53;5008035;28;20065;-72
2022/01/30 02:12:15;;;;;;;13.38;2.60;;;;;;;11.72;49.20;102226.19;5008844;28;20054;-72
2022/01/30 02:15:47;;;;;;;9.38;2.78;;;;;;;11.72;49.42;102216.19;5007955;28;20472;-72
2022/01/30 02:25:49;;;;;;;8.45;2.10;;;;;;;11.62;49.19;102235.75;5007652;28;20056;-72
2022/01/30 02:28:19;;;;;;;13.55;3.20;;;;;;;11.60;49.50;102237.72;5006861;28;20077;-72
2022/01/30 02:30:56;;;;;;;6.22;2.20;;;;;;;11.62;49.15;102247.53;5004187;28;20144;-72
2022/01/30 02:33:24;;;;;;;8.50;2.35;;;;;;;11.60;49.38;102251.31;5002789;28;20049;-71
2022/01/30 02:35:51;;;;;;;11.30;2.58;;;;;;;11.60;49.19;102251.31;5006634;28;20067;-71
2022/01/30 02:38:22;;;;;;;8.75;2.03;;;;;;;11.61;48.90;102256.66;5007432;28;20429;-72
2022/01/30 02:40:52;;;;;;;7.95;2.10;;;;;;;11.58;49.61;102267.69;5000014;28;20131;-72
2022/01/30 02:43:23;;;;;;;10.43;2.50;;;;;;;11.58;49.47;102274.97;5009147;28;20474;-71
2022/01/30 02:46:03;;;;;;;9.68;2.25;;;;;;;11.59;49.48;102282.19;4996276;28;20599;-71
2022/01/30 02:48:46;;;;;;;9.45;2.38;;;;;;;11.60;49.12;102279.41;5008403;28;20493;-72
2022/01/30 02:51:17;;;;;;;12.05;2.60;;;;;;;11.56;49.17;102285.03;5007825;28;20062;-72
2022/01/30 02:53:47;;;;;;;9.75;2.45;;;;;;;11.56;49.24;102288.63;5010872;28;20481;-71
2022/01/30 02:56:14;;;;;;;9.88;2.70;;;;;;;11.55;49.32;102286.88;5011012;28;20054;-71
2022/01/30 02:58:40;;;;;;;10.73;2.47;;;;;;;11.56;49.42;102285.91;5012796;28;20060;-71
2022/01/30 03:01:07;;;;;;;6.22;2.30;;;;;;;11.54;49.21;102276.06;5010886;28;20061;-71
2022/01/30 03:03:34;;;;;;;9.18;2.33;;;;;;;11.53;49.32;102282.50;5011009;28;20050;-71
2022/01/30 03:06:01;;;;;;;10.35;2.53;;;;;;;11.52;49.25;102284.31;5006341;28;20161;-72
2022/01/30 03:08:28;;;;;;;7.95;2.75;;;;;;;11.52;49.20;102281.59;5007835;28;20077;-71
2022/01/30 03:10:54;;;;;;;11.13;2.55;;;;;;;11.50;49.35;102286.22;5011221;28;20140;-72
2022/01/30 03:13:21;;;;;;;9.82;2.50;;;;;;;11.50;49.53;102294.38;5014511;28;20556;-71
2022/01/30 03:15:48;;;;;;;9.07;2.30;;;;;;;11.49;49.46;102289.91;5018740;28;20089;-71
2022/01/30 03:18:14;;;;;;;6.80;2.20;;;;;;;11.48;49.46;102279.09;5012063;28;20046;-71
2022/01/30 03:20:42;;;;;;;10.88;2.67;;;;;;;11.49;49.41;102280.84;5010080;28;20105;-71
2022/01/30 03:23:08;;;;;;;11.15;2.63;;;;;;;11.49;49.49;102281.75;5010966;28;20129;-71
2022/01/30 03:25:35;;;;;;;10.60;3.15;;;;;;;11.49;49.42;102278.13;5009070;28;20057;-72
2022/01/30 03:28:04;;;;;;;12.68;2.88;;;;;;;11.47;49.42;102280.03;5013217;28;20496;-71
2022/01/30 03:30:32;;;;;;;9.90;2.55;;;;;;;11.46;49.09;102279.16;5007874;28;20046;-71
2022/01/30 03:32:59;;;;;;;9.13;2.92;;;;;;;11.46;49.19;102284.59;5010593;28;20053;-72
2022/01/30 03:35:26;;;;;;;8.30;2.58;;;;;;;11.44;49.23;102278.38;5010397;28;20459;-71
2022/01/30 03:37:52;;;;;;;6.50;2.47;;;;;;;11.42;49.15;102281.16;5011545;28;20493;-72
2022/01/30 03:40:19;;;;;;;9.82;2.83;;;;;;;11.40;49.16;102285.78;5010624;28;20054;-72
2022/01/30 03:42:46;;;;;;;10.13;2.85;;;;;;;11.39;49.31;102292.16;5010788;28;20050;-71
2022/01/30 03:45:13;;;;;;;12.90;3.00;;;;;;;11.39;49.34;102286.72;5009865;28;20141;-71
2022/01/30 03:47:40;;;;;;;9.63;3.65;;;;;;;11.39;49.21;102286.72;5012098;28;20045;-71
2022/01/30 03:50:07;;;;;;;10.93;2.47;;;;;;;11.38;49.24;102297.66;5011602;28;20504;-71
2022/01/30 03:52:34;;;;;;;7.40;2.58;;;;;;;11.38;49.12;102293.13;5011330;28;20049;-72
2022/01/30 03:55:00;;;;;;;10.73;2.85;;;;;;;11.38;49.35;102290.41;5010500;28;20817;-71
2022/01/30 03:57:27;;;;;;;10.60;2.40;;;;;;;11.37;49.14;102298.63;5005850;28;20085;-71
2022/01/30 03:59:54;;;;;;;8.73;2.28;;;;;;;11.37;48.78;102299.50;5009829;28;20128;-71
2022/01/30 04:02:21;;;;;;;9.57;2.15;;;;;;;11.36;49.04;102296.88;5005257;28;20452;-72
2022/01/30 04:04:48;;;;;;;10.85;3.05;;;;;;;11.34;49.02;102293.34;5009038;28;20057;-72
2022/01/30 04:07:15;;;;;;;10.73;2.78;;;;;;;11.34;49.30;102296.06;5010813;28;20264;-71
2022/01/30 04:09:42;;;;;;;7.35;2.38;;;;;;;11.33;48.81;102299.75;5009988;28;20038;-71
2022/01/30 04:12:09;;;;;;;8.20;2.15;;;;;;;11.32;49.59;102300.69;5011858;28;20092;-71
2022/01/30 04:14:36;;;;;;;8.77;2.92;;;;;;;11.32;49.23;102306.13;5009926;28;20062;-71
2022/01/30 04:17:04;;;;;;;11.68;2.22;;;;;;;11.33;49.08;102305.19;5008632;28;20050;-71
2022/01/30 04:19:31;;;;;;;9.90;2.17;;;;;;;11.31;49.19;102309.78;5009543;28;20090;-72
2022/01/30 04:21:57;;;;;;;9.20;2.78;;;;;;;11.30;49.20;102308.91;5012130;28;20054;-72
2022/01/30 04:24:24;;;;;;;9.13;2.58;;;;;;;11.30;49.34;102303.47;5009557;28;20169;-71
2022/01/30 04:26:51;;;;;;;8.40;2.22;;;;;;;11.31;49.31;102307.06;5010407;28;20050;-71
2022/01/30 04:29:17;;;;;;;12.45;2.92;;;;;;;11.30;48.96;102298.03;5009929;28;20042;-72
2022/01/30 04:31:44;;;;;;;8.25;2.05;;;;;;;11.30;49.03;102310.75;5007137;28;20080;-71
2022/01/30 04:34:12;;;;;;;9.82;2.33;;;;;;;11.28;48.99;102318.97;5008108;28;20493;-72
2022/01/30 04:36:44;;;;;;;6.75;2.03;;;;;;;11.27;48.78;102314.50;5009910;28;20482;-72
2022/01/30 04:58:03;;;;;;;9.60;2.00;;;;;;;11.05;49.06;102339.06;5008391;28;20101;-71
2022/01/30 05:08:06;;;;;;;8.23;2.20;;;;;;;11.01;49.05;102344.72;5007709;28;20038;-71
2022/01/30 05:10:34;;;;;;;9.38;2.13;;;;;;;11.01;49.10;102345.59;5008715;28;20092;-71
2022/01/30 05:13:04;;;;;;;7.60;2.13;;;;;;;11.01;49.11;102355.59;5010480;28;20054;-71
2022/01/30 05:15:31;;;;;;;11.52;2.60;;;;;;;11.00;49.30;102362.84;5006844;28;20096;-71
2022/01/30 05:17:58;;;;;;;7.25;2.35;;;;;;;11.01;49.22;102358.31;5009967;28;20441;-71
2022/01/30 05:20:25;;;;;;;9.85;2.25;;;;;;;11.00;49.17;102368.28;5007759;28;20057;-71
2022/01/30 05:22:52;;;;;;;9.30;2.35;;;;;;;11.00;49.20;102367.41;5008503;28;20072;-71
2022/01/30 05:25:19;;;;;;;6.70;2.38;;;;;;;11.00;49.23;102364.69;5006717;28;20041;-70
2022/01/30 05:27:46;;;;;;;8.88;2.30;;;;;;;11.01;49.12;102369.19;5009842;28;20350;-70
2022/01/30 05:30:13;;;;;;;11.02;2.78;;;;;;;11.00;49.07;102376.44;5008316;28;20058;-70
2022/01/30 05:32:40;;;;;;;8.77;2.88;;;;;;;11.00;49.45;102371.00;5009632;28;20042;-71
2022/01/30 05:35:07;;;;;;;9.40;2.15;;;;;;;11.01;49.29;102369.19;5007688;28;20061;-70
2022/01/30 05:37:40;;;;;;;10.68;2.30;;;;;;;10.99;49.27;102371.06;5010521;28;20461;-70
2022/01/30 05:40:08;;;;;;;10.57;2.15;;;;;;;11.02;49.39;102374.53;5006706;28;20416;-70
2022/01/30 05:42:37;;;;;;;8.27;2.08;;;;;;;11.02;49.24;102363.69;5011264;28;20532;-70
2022/01/30 05:45:14;;;;;;;9.57;2.33;;;;;;;11.03;49.32;102370.88;5003254;28;20085;-70
2022/01/30 05:47:47;;;;;;;6.25;2.25;;;;;;;11.03;49.02;102370.88;5007243;28;20077;-70
2022/01/30 05:50:14;;;;;;;7.88;2.25;;;;;;;11.00;49.30;102365.56;5002642;28;20104;-70
2022/01/30 05:52:43;;;;;;;11.45;2.30;;;;;;;11.01;49.43;102364.63;5009981;28;20474;-70
2022/01/30 05:55:10;;;;;;;9.68;2.72;;;;;;;11.01;49.24;102370.06;5001177;28;20489;-70
2022/01/30 05:57:36;;;;;;;7.13;2.25;;;;;;;10.99;48.83;102366.53;5008468;28;20042;-70
2022/01/30 06:00:05;;;;;;;5.70;1.65;;;;;;;11.00;49.09;102370.13;5007174;28;20058;-70
2022/01/30 06:02:32;;;;;;;7.85;2.40;;;;;;;10.97;49.13;102379.28;5009594;28;20061;-70
2022/01/30 06:04:58;;;;;;;9.85;2.20;;;;;;;10.95;49.04;102381.19;5007756;28;20080;-70
2022/01/30 06:07:29;;;;;;;6.95;1.60;;;;;;;10.95;49.22;102394.75;5008557;28;20054;-70
2022/01/30 06:09:56;;;;;;;8.52;2.25;;;;;;;10.93;49.03;102404.84;5007271;28;20050;-70
2022/01/30 06:12:23;;;;;;;6.43;2.22;;;;;;;10.92;49.07;102399.47;5010494;28;20053;-70
2022/01/30 06:14:51;;;;;;;7.50;2.05;;;;;;;10.94;49.21;102409.34;5006859;28;20128;-70
2022/01/30 06:17:18;;;;;;;11.60;2.20;;;;;;;10.92;49.24;102419.38;5009134;28;20084;-70
2022/01/30 06:19:44;;;;;;;8.77;2.60;;;;;;;10.92;49.14;102423.91;5007491;28;20124;-70
2022/01/30 06:22:12;;;;;;;9.90;2.05;;;;;;;10.92;49.04;102424.81;5009778;28;20049;-70
2022/01/30 06:24:38;;;;;;;8.95;2.38;;;;;;;10.91;48.86;102433.03;5003338;28;20053;-70
2022/01/30 06:27:05;;;;;;;9.82;2.20;;;;;;;10.90;49.13;102428.53;5009711;28;20046;-70
2022/01/30 06:29:32;;;;;;;8.18;2.20;;;;;;;10.89;49.18;102432.19;5011515;28;20445;-70
2022/01/30 06:31:58;;;;;;;7.85;2.08;;;;;;;10.87;48.91;102432.25;5013445;28;20132;-70
2022/01/30 06:34:27;;;;;;;7.18;1.98;;;;;;;10.86;48.77;102433.22;5014212;28;20090;-70
2022/01/30 06:36:55;;;;;;;7.65;2.00;;;;;;;10.86;48.87;102435.06;5012259;28;20046;-70
2022/01/30 06:39:22;;;;;;;6.80;1.90;;;;;;;10.86;48.89;102440.50;5011260;28;20305;-71
2022/01/30 06:41:50;;;;;;;5.90;2.05;;;;;;;10.84;48.61;102440.56;5012673;28;20049;-71
2022/01/30 06:44:16;;;;;;;6.22;1.50;;;;;;;10.84;49.12;102440.56;5011041;28;20077;-71
2022/01/30 06:46:43;;;;;;;7.18;1.67;;;;;;;10.84;48.68;102445.09;5011480;28;20157;-71
2022/01/30 06:49:10;;;;;;;7.10;1.73;;;;;;;10.82;48.79;102450.59;5011647;28;20046;-72
2022/01/30 06:51:37;;;;;;;9.65;1.80;;;;;;;10.82;48.92;102455.16;5013729;28;20100;-71
2022/01/30 06:54:04;;;;;;;8.95;2.03;;;;;;;10.81;48.71;102458.81;5011693;28;20443;-71
2022/01/30 06:56:30;;;;;;;8.60;2.20;;;;;;;10.81;48.90;102456.97;5011584;28;20054;-71
2022/01/30 06:58:57;;;;;;;8.23;1.55;;;;;;;10.81;48.95;102467.84;5011552;28;20465;-71
2022/01/30 07:01:25;;;;;;;7.88;1.95;;;;;;;10.81;48.96;102472.41;5016010;28;20061;-71
2022/01/30 07:03:53;;;;;;;8.82;1.90;;;;;;;10.81;48.79;102472.41;5013066;28;20413;-71
2022/01/30 07:06:20;;;;;;;9.63;2.30;;;;;;;10.81;48.99;102473.28;5010037;28;20061;-71
2022/01/30 07:08:47;;;;;;;10.60;2.50;;;;;;;10.81;48.96;102478.72;5005910;28;20528;-71
2022/01/30 07:11:15;;;;;;;6.25;1.80;;;;;;;10.82;48.81;102469.63;5011878;28;20144;-71
2022/01/30 07:13:42;;;;;;;5.05;1.70;;;;;;;10.83;49.10;102474.09;5011971;28;20452;-71
2022/01/30 07:16:12;;;;;;;8.18;1.63;;;;;;;10.83;48.78;102476.81;5014584;28;20081;-71
2022/01/30 07:18:39;;;;;;;16.15;2.42;;;;;;;10.84;48.94;102478.59;5011327;28;20053;-72
2022/01/30 07:21:09;;;;;;;6.90;1.75;;;;;;;10.85;48.86;102484.91;5010880;28;20103;-71
2022/01/30 07:23:37;;;;;;;6.63;2.35;;;;;;;10.88;48.73;102487.50;5015619;28;20465;-71
2022/01/30 07:26:04;;;;;;;7.13;2.13;;;;;;;10.88;48.80;102487.50;5013916;28;20108;-71
2022/01/30 07:28:31;;;;;;;8.38;1.73;;;;;;;10.89;48.67;102492.88;5012755;28;20050;-71
2022/01/30 07:30:57;;;;;;;8.02;2.22;;;;;;;10.89;48.70;102482.00;5006759;28;20108;-71
2022/01/30 07:33:24;;;;;;;6.82;1.80;;;;;;;10.90;48.88;102491.91;5010372;28;20305;-71
2022/01/30 07:35:53;;;;;;;8.07;2.10;;;;;;;10.90;48.54;102494.63;5009335;28;20053;-71
2022/01/30 07:38:21;;;;;;;5.88;1.58;;;;;;;10.90;48.49;102483.75;5011431;28;20088;-71
2022/01/30 07:40:49;;;;;;;6.70;1.50;;;;;;;10.92;48.48;102483.72;5010930;28;20057;-71
2022/01/30 07:43:15;;;;;;;5.78;1.58;;;;;;;10.91;48.80;102484.66;5019371;28;20136;-71
2022/01/30 07:45:42;;;;;;;9.55;2.67;;;;;;;10.91;48.77;102481.94;5007415;28;20409;-71
2022/01/30 07:48:08;;;;;;;8.52;1.63;;;;;;;10.91;48.58;102484.66;5021923;28;20100;-71
2022/01/30 07:50:35;;;;;;;6.75;1.90;;;;;;;10.92;48.43;102489.13;5010808;28;20145;-70
2022/01/30 07:53:02;;;;;;;7.10;2.17;;;;;;;10.91;48.38;102500.97;5009860;28;20053;-71
2022/01/30 07:55:29;;;;;;;6.15;1.60;;;;;;;10.91;48.43;102506.38;5012245;28;20085;-70
2022/01/30 07:57:56;;;;;;;5.70;1.70;;;;;;;10.91;48.68;102506.38;5012404;28;20057;-72
2022/01/30 08:00:22;;;;;;;7.50;1.95;;;;;;;10.91;48.46;102501.84;5010295;28;20058;-71
2022/01/30 08:02:50;;;;;;;9.88;2.38;;;;;;;10.90;48.54;102497.34;5010988;28;20057;-71
2022/01/30 08:05:17;;;;;;;7.28;2.17;;;;;;;10.91;48.66;102514.53;5009271;28;20088;-71
2022/01/30 08:07:44;;;;;;;5.70;1.80;;;;;;;10.91;48.75;102514.53;4994873;28;20140;-71
2022/01/30 08:10:11;;;;;;;7.80;2.55;;;;;;;10.91;48.60;102520.88;5007946;28;20401;-72
2022/01/30 08:12:38;;;;;;;7.25;1.35;;;;;;;10.90;48.66;102524.53;5008022;28;20060;-71
2022/01/30 08:15:09;;;;;;;5.30;1.70;;;;;;;10.90;48.64;102527.25;5013387;28;20447;-72
2022/01/30 08:17:37;;;;;;;6.53;2.08;;;;;;;10.89;48.53;102522.75;5010888;28;20053;-72
2022/01/30 08:20:06;;;;;;;10.98;1.90;;;;;;;10.91;48.56;102528.13;5002878;28;20129;-71
2022/01/30 08:22:43;;;;;;;6.07;1.90;;;;;;;10.93;47.90;102535.28;5024727;28;20050;-71
2022/01/30 08:25:11;;;;;;;7.50;1.67;;;;;;;10.89;48.63;102532.72;4999948;28;20056;-71
2022/01/30 08:27:38;;;;;;;7.70;1.83;;;;;;;10.90;48.82;102539.94;5011237;28;20177;-71
2022/01/30 08:30:05;;;;;;;10.32;2.10;;;;;;;10.91;48.92;102541.72;5009673;28;20085;-70
2022/01/30 08:32:37;;;;;;;8.38;2.13;;;;;;;10.92;48.35;102552.53;5017187;28;20462;-70
2022/01/30 08:35:05;;;;;;;6.88;1.60;;;;;;;10.92;48.69;102544.38;5009827;28;20049;-71
2022/01/30 08:37:31;;;;;;;7.75;2.17;;;;;;;10.94;48.41;102537.06;5010800;28;20180;-70
2022/01/30 08:39:58;;;;;;;8.15;2.30;;;;;;;10.94;48.40;102545.22;5002839;28;20073;-70
2022/01/30 08:42:24;;;;;;;7.25;1.95;;;;;;;10.93;48.37;102539.81;5005164;28;20475;-70
2022/01/30 08:44:51;;;;;;;6.57;1.67;;;;;;;10.92;48.75;102536.22;5007879;28;20567;-69
2022/01/30 08:47:18;;;;;;;5.75;1.75;;;;;;;10.95;48.68;102537.94;5010413;28;20289;-70
2022/01/30 08:49:44;;;;;;;8.35;2.20;;;;;;;10.95;48.57;102536.06;5009461;28;20060;-70
2022/01/30 08:52:16;;;;;;;6.55;2.28;;;;;;;10.97;48.52;102536.03;5007327;28;20046;-69
2022/01/30 08:54:43;;;;;;;5.93;1.90;;;;;;;10.98;48.30;102530.53;5006908;28;20508;-70
2022/01/30 08:57:09;;;;;;;7.18;1.73;;;;;;;10.98;48.56;102540.50;5006230;28;20708;-70
2022/01/30 08:59:40;;;;;;;8.63;2.08;;;;;;;10.97;48.37;102545.06;5006153;28;20042;-70
2022/01/30 09:02:07;;;;;;;7.10;1.98;;;;;;;10.99;48.50;102545.00;5008005;28;20128;-70
2022/01/30 09:04:35;;;;;;;7.93;1.75;;;;;;;10.99;48.42;102550.44;5007430;28;20053;-70
2022/01/30 09:07:02;;;;;;;6.03;1.48;;;;;;;11.00;48.32;102561.25;5009305;28;20050;-70
2022/01/30 09:09:30;;;;;;;7.40;1.80;;;;;;;11.01;48.37;102553.97;5008439;28;20085;-70
2022/01/30 09:12:02;;;;;;;8.30;2.00;;;;;;;11.05;48.20;102555.59;5010117;28;20133;-70
2022/01/30 09:14:30;;;;;;;10.82;2.20;;;;;;;11.02;48.60;102547.59;5005147;28;20089;-70
2022/01/30 09:16:57;;;;;;;9.57;2.28;;;;;;;11.03;48.43;102558.41;5008795;28;20567;-69
2022/01/30 09:19:36;;;;;;;8.43;2.08;;;;;;;11.02;48.53;102564.78;5008729;28;20480;-70
2022/01/30 09:22:07;;;;;;;6.72;2.28;;;;;;;11.06;48.05;102563.69;5009172;28;20124;-70
2022/01/30 09:24:34;;;;;;;11.10;2.53;;;;;;;11.06;48.34;102565.53;5005697;28;20116;-70
2022/01/30 09:27:01;;;;;;;6.88;1.98;;;;;;;11.08;48.40;102569.09;5007630;28;20125;-70
2022/01/30 09:29:28;;;;;;;8.73;2.50;;;;;;;11.09;48.27;102559.97;5007422;28;20089;-70
2022/01/30 09:31:59;;;;;;;6.88;1.85;;;;;;;11.11;48.37;102554.50;5006585;28;20108;-70
2022/01/30 09:34:26;;;;;;;9.35;2.05;;;;;;;11.13;48.28;102556.16;5008581;28;20057;-70
2022/01/30 09:36:53;;;;;;;5.35;1.77;;;;;;;11.14;48.20;102559.78;5009488;28;20132;-70
2022/01/30 09:39:20;;;;;;;12.73;2.33;;;;;;;11.14;48.14;102555.22;5003817;28;20172;-71
2022/01/30 09:41:48;;;;;;;11.27;2.75;;;;;;;11.17;48.00;102552.38;5000831;28;20054;-71
2022/01/30 09:44:17;;;;;;;9.85;2.60;;;;;;;11.20;48.19;102545.94;5005346;28;20489;-71
2022/01/30 09:46:44;;;;;;;9.90;3.13;;;;;;;11.21;48.66;102537.69;5007428;28;20072;-71
2022/01/30 09:49:13;;;;;;;10.88;2.88;;;;;;;11.25;48.48;102542.06;5002780;28;20108;-71
2022/01/30 09:51:42;;;;;;;9.38;2.22;;;;;;;11.27;48.23;102532.03;5006255;28;20358;-71
2022/01/30 09:54:11;;;;;;;7.90;2.63;;;;;;;11.30;48.40;102529.16;5007594;28;20095;-72
2022/01/30 09:56:38;;;;;;;9.75;1.92;;;;;;;11.33;47.88;102528.16;5004869;28;20046;-71
2022/01/30 09:59:05;;;;;;;9.30;2.05;;;;;;;11.35;48.36;102531.69;5008179;28;20050;-72
2022/01/30 10:01:34;;;;;;;7.90;1.90;;;;;;;11.39;47.98;102539.63;5008624;28;20053;-72
2022/01/30 10:04:04;;;;;;;8.95;2.22;;;;;;;11.43;47.92;102529.53;5009207;28;20053;-71
2022/01/30 10:06:50;;;;;;;9.27;2.33;;;;;;;11.45;47.28;102525.75;4997637;28;20460;-71
2022/01/30 10:09:29;;;;;;;8.32;2.33;;;;;;;11.48;47.09;102527.47;5004128;28;20065;-72
2022/01/30 10:12:16;;;;;;;8.88;2.17;;;;;;;11.50;47.38;102533.72;5005550;28;20049;-71
2022/01/30 10:15:04;;;;;;;8.75;2.10;;;;;;;11.53;47.23;102541.75;5006144;28;20591;-71
2022/01/30 10:17:47;;;;;;;11.52;2.22;;;;;;;11.53;47.00;102530.84;5006221;28;20085;-71
2022/01/30 10:20:37;;;;;;;8.63;2.10;;;;;;;11.55;47.21;102544.41;5007341;28;20057;-71
2022/01/30 10:23:08;;;;;;;11.30;2.35;;;;;;;11.55;47.90;102550.72;5010120;28;20137;-71
2022/01/30 10:25:38;;;;;;;7.65;2.30;;;;;;;11.61;47.33;102547.72;5004610;28;20493;-72
2022/01/30 10:28:14;;;;;;;9.93;2.28;;;;;;;11.70;47.02;102546.44;5006896;28;20140;-71
2022/01/30 10:30:48;;;;;;;10.23;2.10;;;;;;;11.71;46.81;102550.94;5008363;28;20054;-72
2022/01/30 10:33:17;;;;;;;7.20;2.22;;;;;;;11.73;47.38;102549.91;5009848;28;20054;-72
2022/01/30 10:35:58;;;;;;;11.25;2.42;;;;;;;11.78;46.47;102547.91;5005045;28;20088;-71
2022/01/30 10:38:34;;;;;;;9.95;2.40;;;;;;;11.82;47.15;102554.97;5005896;28;20131;-72
2022/01/30 10:41:12;;;;;;;8.07;2.28;;;;;;;11.88;46.92;102544.75;5008046;28;20077;-72
2022/01/30 10:44:02;;;;;;;9.95;2.25;;;;;;;11.89;46.84;102547.41;5008623;28;20480;-71
2022/01/30 10:46:42;;;;;;;10.10;2.00;;;;;;;11.93;47.60;102549.06;4998796;28;20041;-71
2022/01/30 10:49:20;;;;;;;7.78;2.30;;;;;;;12.01;46.11;102546.88;5000978;28;20061;-71
2022/01/30 10:51:52;;;;;;;10.27;2.40;;;;;;;12.06;46.22;102542.09;5008961;28;20046;-72
2022/01/30 10:54:20;;;;;;;10.45;3.13;;;;;;;12.07;47.02;102538.41;5004546;28;20046;-71
2022/01/30 10:56:46;;;;;;;9.93;2.38;;;;;;;12.15;46.71;102525.31;5005167;28;20061;-72
2022/01/30 10:59:15;;;;;;;14.23;3.05;;;;;;;12.22;46.62;102541.38;5008181;28;20042;-72
2022/01/30 11:01:45;;;;;;;10.60;2.17;;;;;;;12.26;46.17;102546.63;5018248;28;20057;-72
2022/01/30 11:04:28;;;;;;;9.43;2.63;;;;;;;12.33;45.42;102547.22;5016409;28;20088;-72
2022/01/30 11:06:59;;;;;;;10.05;2.50;;;;;;;12.30;46.16;102553.66;5006143;28;20504;-71
2022/01/30 11:09:47;;;;;;;10.50;2.70;;;;;;;12.36;45.07;102545.19;5007343;28;20493;-71
2022/01/30 11:12:15;;;;;;;10.68;2.80;;;;;;;12.37;45.50;102548.81;5009483;28;20555;-71
2022/01/30 11:17:18;;;;;;;10.50;2.47;;;;;;;12.43;45.36;102543.97;5012758;28;20050;-71
2022/01/30 11:19:48;;;;;;;8.88;2.30;;;;;;;12.47;45.45;102545.59;5008143;28;20490;-71
2022/01/30 11:22:18;;;;;;;11.48;3.10;;;;;;;12.51;45.46;102541.78;5009731;28;20145;-71
2022/01/30 11:24:47;;;;;;;12.90;2.60;;;;;;;12.56;45.14;102533.38;5004582;28;20136;-71
2022/01/30 11:27:17;;;;;;;8.68;2.92;;;;;;;12.61;45.00;102544.91;5009119;28;20057;-71
2022/01/30 11:29:45;;;;;;;10.15;3.67;;;;;;;12.64;45.65;102544.78;5010584;28;20077;-71
2022/01/30 11:32:13;;;;;;;12.95;3.05;;;;;;;12.71;45.50;102540.78;5012658;28;20466;-78
2022/01/30 11:34:42;;;;;;;10.77;2.55;;;;;;;12.79;45.28;102537.69;5010682;28;20057;-77
2022/01/30 11:37:11;;;;;;;10.35;2.78;;;;;;;12.86;45.21;102533.69;5011391;28;20100;-80
2022/01/30 11:39:44;;;;;;;13.20;3.38;;;;;;;12.90;44.34;102514.41;5014432;28;20101;-79
2022/01/30 11:42:12;;;;;;;11.35;2.92;;;;;;;12.95;44.53;102517.75;5016901;28;20049;-80
2022/01/30 11:44:41;;;;;;;12.57;3.45;;;;;;;12.99;44.68;102518.50;5016300;28;20416;-80
2022/01/30 11:47:08;;;;;;;12.57;3.47;;;;;;;13.03;44.21;102530.13;5010558;28;20046;-80
2022/01/30 11:49:41;;;;;;;13.13;3.33;;;;;;;13.05;44.06;102512.72;5001288;28;20101;-79
2022/01/30 11:52:10;;;;;;;12.32;2.95;;;;;;;13.06;44.18;102521.81;5018371;28;20555;-81
2022/01/30 11:54:41;;;;;;;12.43;2.80;;;;;;;13.10;43.22;102521.56;5009550;28;20074;-76
2022/01/30 11:57:19;;;;;;;11.93;3.38;;;;;;;13.09;43.34;102519.81;5010224;28;20115;-74
2022/01/30 11:59:54;;;;;;;12.35;2.75;;;;;;;13.09;43.46;102517.09;5010495;28;20080;-75
2022/01/30 12:02:28;;;;;;;14.38;3.08;;;;;;;13.10;42.61;102523.38;5012415;28;20128;-74
2022/01/30 12:04:56;;;;;;;12.10;2.72;;;;;;;13.07;43.28;102523.56;5006758;28;20062;-74
2022/01/30 12:07:35;;;;;;;10.43;2.75;;;;;;;13.08;42.37;102520.78;5010775;28;20042;-73
2022/01/30 12:10:19;;;;;;;13.57;3.08;;;;;;;13.02;42.05;102521.06;5009678;28;20050;-74
2022/01/30 12:12:47;;;;;;;9.13;2.72;;;;;;;12.98;42.86;102507.66;5011331;28;20458;-73
2022/01/30 12:15:43;;;;;;;15.38;3.17;;;;;;;12.92;41.74;102509.75;5009353;28;20120;-74
2022/01/30 12:18:14;;;;;;;12.40;2.47;;;;;;;12.88;42.05;102516.31;5005103;28;20135;-74
2022/01/30 12:20:56;;;;;;;11.23;3.05;;;;;;;12.86;41.68;102515.50;5010668;28;20509;-74
2022/01/30 12:23:30;;;;;;;11.15;2.85;;;;;;;12.82;41.55;102513.00;5005122;28;20477;-73
2022/01/30 12:26:04;;;;;;;11.05;2.63;;;;;;;12.78;42.73;102515.00;5008312;28;20046;-73
2022/01/30 12:28:45;;;;;;;9.88;2.47;;;;;;;12.78;41.80;102514.09;5010862;28;20049;-74